Sappemeer, Netherlands
Current Conditions -  °F | °C
As of 6:55 AM on Friday 28 Nov 2014 (Local Time) from EHGG Reporting Station
Clear Clear  
Wind Chill: 29°   Ceiling: Unl
Heat Index: 37°   Visibility: 4mi
Dew Point: 34°   Wind: 14mph
Humidity: 87%   Direction: 100°E
Pressure: 29.83"   Gusts: NA
Location:  53.16°N, 6.79°E
Report Text: EHGG 280555Z AUTO 10012KT 070V140 6000 NSC 03/01 Q1010 NOSIG
Loading
Personal Weather Stations






























Interactive Weather Map New forecast layout! Learn more

10-Day Weather Forecast

Advertisements
Track Severe Weather on mobile